createdAt,value
2019-05-19T00:01:27.170Z,16.94
2019-05-19T00:03:58.123Z,16.93
2019-05-19T00:06:29.040Z,16.86
2019-05-19T00:09:00.031Z,16.80
2019-05-19T00:11:30.938Z,16.81
2019-05-19T00:14:01.765Z,16.77
2019-05-19T00:16:32.527Z,16.77
2019-05-19T00:19:03.584Z,16.71
2019-05-19T00:21:34.317Z,16.67
2019-05-19T00:24:06.212Z,16.71
2019-05-19T00:26:37.164Z,16.67
2019-05-19T00:29:08.496Z,16.63
2019-05-19T00:31:39.658Z,16.39
2019-05-19T00:34:10.897Z,16.50
2019-05-19T00:36:42.013Z,16.43
2019-05-19T00:39:13.356Z,16.47
2019-05-19T00:41:44.187Z,16.44
2019-05-19T00:44:14.841Z,16.47
2019-05-19T00:46:46.070Z,16.35
2019-05-19T00:49:16.733Z,16.34
2019-05-19T00:51:47.863Z,16.13
2019-05-19T00:54:20.083Z,16.10
2019-05-19T00:56:51.555Z,16.05
2019-05-19T00:59:23.316Z,16.02
2019-05-19T01:01:54.377Z,16.14
2019-05-19T01:04:25.323Z,16.19
2019-05-19T01:06:56.595Z,16.06
2019-05-19T01:09:27.599Z,16.02
2019-05-19T01:11:58.675Z,16.12
2019-05-19T01:14:29.558Z,16.15
2019-05-19T01:17:01.686Z,16.12
2019-05-19T01:19:32.569Z,16.07
2019-05-19T01:22:04.840Z,16.06
2019-05-19T01:24:35.744Z,16.06
2019-05-19T01:27:06.694Z,16.08
2019-05-19T01:29:37.735Z,15.87
2019-05-19T01:32:08.580Z,15.91
2019-05-19T01:34:39.517Z,15.86
2019-05-19T01:37:10.358Z,15.84
2019-05-19T01:39:41.295Z,15.85
2019-05-19T01:42:12.261Z,15.83
2019-05-19T01:44:43.058Z,15.94
2019-05-19T01:47:13.973Z,15.83
2019-05-19T01:49:44.702Z,15.92
2019-05-19T01:52:15.343Z,15.99
2019-05-19T01:54:46.487Z,15.98
2019-05-19T01:57:17.414Z,15.79
2019-05-19T01:59:48.199Z,15.82
2019-05-19T02:02:19.113Z,15.96
2019-05-19T02:04:50.167Z,16.01
2019-05-19T02:07:20.995Z,15.67
2019-05-19T02:09:51.885Z,15.64
2019-05-19T02:12:23.005Z,15.82
2019-05-19T02:14:53.826Z,15.52
2019-05-19T02:17:24.765Z,15.57
2019-05-19T02:19:55.703Z,15.72
2019-05-19T02:22:26.710Z,15.47
2019-05-19T02:24:57.823Z,15.69
2019-05-19T02:27:28.878Z,15.78
2019-05-19T02:29:59.787Z,15.73
2019-05-19T02:32:30.671Z,15.67
2019-05-19T02:35:01.856Z,15.77
2019-05-19T02:37:32.907Z,15.87
2019-05-19T02:40:04.548Z,15.95
2019-05-19T02:42:38.820Z,15.95
2019-05-19T02:45:11.471Z,15.78
2019-05-19T02:47:44.385Z,15.76
2019-05-19T02:50:15.456Z,15.74
2019-05-19T02:52:49.402Z,15.78
2019-05-19T02:55:20.578Z,15.84
2019-05-19T02:57:52.830Z,15.89
2019-05-19T03:00:44.417Z,15.93
2019-05-19T03:03:15.691Z,15.91
2019-05-19T03:05:46.625Z,15.91
2019-05-19T03:08:18.388Z,15.88
2019-05-19T03:10:49.421Z,15.93
2019-05-19T03:13:20.104Z,15.93
2019-05-19T03:15:53.330Z,15.76
2019-05-19T03:18:24.607Z,15.73
2019-05-19T03:21:09.789Z,15.72
2019-05-19T03:23:28.104Z,15.65
2019-05-19T03:25:59.003Z,15.78
2019-05-19T03:28:30.154Z,15.83
2019-05-19T03:31:09.527Z,15.84
2019-05-19T03:33:42.419Z,15.82
2019-05-19T03:36:13.085Z,15.74
2019-05-19T03:38:44.853Z,15.83
2019-05-19T03:41:15.803Z,15.74
2019-05-19T03:43:46.569Z,15.81
2019-05-19T03:46:17.455Z,15.71
2019-05-19T03:48:48.390Z,15.83
2019-05-19T03:51:30.052Z,16.00
2019-05-19T03:53:52.108Z,15.90
2019-05-19T03:56:22.852Z,15.79
2019-05-19T03:58:53.964Z,15.58
2019-05-19T04:01:24.736Z,15.59
2019-05-19T04:03:55.453Z,15.44
2019-05-19T04:06:26.996Z,15.63
2019-05-19T04:08:57.946Z,15.52
2019-05-19T04:11:28.726Z,15.60
2019-05-19T04:13:59.807Z,15.59
2019-05-19T04:16:30.750Z,15.63
2019-05-19T04:19:01.702Z,15.72
2019-05-19T04:21:47.655Z,15.84
2019-05-19T04:24:05.019Z,15.97
2019-05-19T04:26:35.890Z,15.93
2019-05-19T04:29:06.801Z,15.75
2019-05-19T04:31:37.911Z,15.75
2019-05-19T04:34:08.563Z,15.81
2019-05-19T04:36:39.163Z,15.95
2019-05-19T04:39:09.951Z,15.95
2019-05-19T04:41:40.955Z,15.87
2019-05-19T04:44:11.898Z,15.84
2019-05-19T04:46:44.067Z,16.04
2019-05-19T04:49:15.015Z,16.09
2019-05-19T04:51:45.827Z,16.02
2019-05-19T04:54:16.814Z,16.00
2019-05-19T04:56:47.414Z,16.10
2019-05-19T04:59:18.256Z,16.21
2019-05-19T05:01:49.179Z,16.27
2019-05-19T05:04:20.200Z,16.09
2019-05-19T05:06:51.407Z,16.31
2019-05-19T05:09:22.098Z,16.38
2019-05-19T05:11:53.154Z,16.45
2019-05-19T05:14:24.295Z,16.39
2019-05-19T05:16:54.994Z,16.56
2019-05-19T05:19:25.569Z,16.52
2019-05-19T05:21:56.795Z,16.62
2019-05-19T05:24:28.788Z,16.63
2019-05-19T05:26:59.644Z,16.63
2019-05-19T05:29:30.436Z,16.64
2019-05-19T05:32:01.414Z,16.52
2019-05-19T05:34:32.736Z,16.64
2019-05-19T05:37:03.939Z,16.76
2019-05-19T05:39:34.509Z,16.81
2019-05-19T05:42:05.624Z,16.81
2019-05-19T05:44:36.484Z,17.01
2019-05-19T05:47:07.325Z,17.02
2019-05-19T05:49:38.254Z,16.97
2019-05-19T05:52:09.271Z,17.04
2019-05-19T05:54:39.842Z,17.14
2019-05-19T05:57:10.811Z,17.00
2019-05-19T05:59:41.577Z,17.06
2019-05-19T06:02:12.563Z,17.04
2019-05-19T06:04:43.608Z,16.99
2019-05-19T06:07:14.652Z,17.16
2019-05-19T06:09:45.712Z,17.30
2019-05-19T06:12:16.536Z,17.33
2019-05-19T06:14:47.829Z,17.33
2019-05-19T06:17:18.611Z,17.36
2019-05-19T06:19:49.289Z,17.24
2019-05-19T06:22:20.371Z,17.20
2019-05-19T06:24:51.239Z,17.29
2019-05-19T06:27:22.334Z,17.32
2019-05-19T06:29:53.215Z,17.32
2019-05-19T06:32:31.820Z,17.30
2019-05-19T06:35:03.080Z,17.29
2019-05-19T06:37:34.123Z,17.29
2019-05-19T06:40:05.280Z,17.31
2019-05-19T06:42:36.023Z,17.24
2019-05-19T06:45:07.320Z,17.28
2019-05-19T06:47:38.376Z,17.25
2019-05-19T06:50:09.761Z,17.35
2019-05-19T06:52:40.526Z,17.46
2019-05-19T06:55:11.629Z,17.51
2019-05-19T06:57:42.335Z,17.47
2019-05-19T07:00:13.563Z,17.59
2019-05-19T07:02:44.435Z,17.47
2019-05-19T07:05:16.906Z,17.45
2019-05-19T07:07:47.961Z,17.53
2019-05-19T07:10:18.902Z,17.59
2019-05-19T07:12:49.897Z,17.62
2019-05-19T07:15:20.637Z,17.56
2019-05-19T07:17:51.776Z,17.53
2019-05-19T07:20:22.521Z,17.49
2019-05-19T07:22:53.331Z,17.57
2019-05-19T07:25:25.804Z,17.58
2019-05-19T07:27:56.593Z,17.55
2019-05-19T07:30:28.342Z,17.57
2019-05-19T07:32:59.284Z,17.67
2019-05-19T07:35:30.379Z,17.75
2019-05-19T07:38:01.052Z,17.84
2019-05-19T07:40:32.093Z,17.86
2019-05-19T07:43:02.992Z,17.81
2019-05-19T07:45:33.880Z,17.77
2019-05-19T07:48:04.769Z,17.71
2019-05-19T07:50:38.113Z,17.72
2019-05-19T07:53:08.648Z,17.76
2019-05-19T07:55:39.446Z,17.74
2019-05-19T07:58:10.351Z,17.75
2019-05-19T08:00:41.352Z,17.75
2019-05-19T08:03:13.448Z,17.78
2019-05-19T08:05:44.459Z,17.81
2019-05-19T08:08:15.318Z,17.93
2019-05-19T08:10:46.564Z,18.01
2019-05-19T08:13:17.445Z,18.00
2019-05-19T08:15:48.208Z,18.04
2019-05-19T08:18:19.346Z,18.05
2019-05-19T08:20:50.209Z,18.14
2019-05-19T08:23:21.301Z,18.29
2019-05-19T08:25:51.901Z,18.42
2019-05-19T08:28:22.606Z,18.63
2019-05-19T08:30:53.372Z,18.72
2019-05-19T08:33:24.481Z,18.89
2019-05-19T08:35:55.532Z,19.02
2019-05-19T08:38:26.585Z,18.99
2019-05-19T08:40:57.556Z,18.96
2019-05-19T08:43:28.353Z,18.96
2019-05-19T08:45:59.154Z,18.98
2019-05-19T08:48:29.912Z,18.84
2019-05-19T08:51:00.918Z,18.88
2019-05-19T08:53:31.659Z,18.89
2019-05-19T08:56:02.476Z,19.04
2019-05-19T08:58:34.388Z,19.05
2019-05-19T09:01:05.464Z,19.11
2019-05-19T09:03:36.151Z,19.17
2019-05-19T09:06:06.958Z,19.18
2019-05-19T09:08:37.880Z,19.20
2019-05-19T09:11:08.706Z,19.41
2019-05-19T09:13:39.364Z,19.42
2019-05-19T09:16:10.339Z,19.54
2019-05-19T09:18:41.228Z,19.78
2019-05-19T09:21:12.043Z,19.76
2019-05-19T09:23:43.154Z,19.85
2019-05-19T09:26:13.880Z,20.07
2019-05-19T09:28:44.959Z,20.29
2019-05-19T09:31:15.704Z,20.53
2019-05-19T09:33:46.561Z,20.96
2019-05-19T09:36:17.574Z,21.24
2019-05-19T09:38:48.432Z,21.57
2019-05-19T09:41:19.368Z,22.03
2019-05-19T09:43:50.177Z,22.75
2019-05-19T09:46:21.086Z,23.29
2019-05-19T09:48:53.637Z,23.52
2019-05-19T09:51:24.525Z,23.15
2019-05-19T09:53:55.476Z,22.47
2019-05-19T09:56:26.399Z,22.33
2019-05-19T09:58:57.410Z,22.31
2019-05-19T10:01:28.346Z,22.76
2019-05-19T10:03:59.375Z,23.17
2019-05-19T10:06:32.040Z,22.72
2019-05-19T10:09:11.213Z,22.37
2019-05-19T10:12:04.540Z,22.08
2019-05-19T10:14:37.060Z,21.77
2019-05-19T10:17:08.086Z,21.74
2019-05-19T10:19:38.724Z,21.92
2019-05-19T10:22:09.905Z,22.25
2019-05-19T10:24:56.319Z,22.78
2019-05-19T10:27:13.669Z,22.50
2019-05-19T10:29:44.648Z,23.45
2019-05-19T10:32:15.816Z,23.82
2019-05-19T10:34:46.791Z,23.40
2019-05-19T10:37:17.396Z,22.63
2019-05-19T10:39:48.335Z,22.31
2019-05-19T10:42:19.395Z,22.02
2019-05-19T10:44:50.408Z,21.72
2019-05-19T10:47:22.653Z,21.39
2019-05-19T10:49:53.551Z,21.18
2019-05-19T10:52:24.608Z,21.18
2019-05-19T10:54:55.694Z,21.28
2019-05-19T10:57:27.080Z,21.23
2019-05-19T10:59:57.680Z,21.09
2019-05-19T11:02:28.515Z,20.89
2019-05-19T11:04:59.568Z,20.93
2019-05-19T11:07:30.795Z,20.99
2019-05-19T11:10:01.714Z,20.81
2019-05-19T11:12:33.779Z,20.76
2019-05-19T11:15:05.090Z,20.73
2019-05-19T11:17:36.128Z,20.77
2019-05-19T11:20:07.529Z,20.89
2019-05-19T11:22:38.411Z,21.28
2019-05-19T11:25:09.451Z,21.35
2019-05-19T11:27:40.482Z,21.44
2019-05-19T11:30:12.277Z,21.68
2019-05-19T11:32:43.358Z,22.14
2019-05-19T11:35:14.196Z,22.30
2019-05-19T11:37:45.792Z,23.53
2019-05-19T11:40:17.982Z,23.27
2019-05-19T11:42:48.654Z,23.09
2019-05-19T11:45:19.592Z,23.07
2019-05-19T11:47:50.424Z,22.92
2019-05-19T11:50:21.321Z,23.01
2019-05-19T11:52:52.122Z,23.41
2019-05-19T11:55:22.816Z,23.40
2019-05-19T11:57:53.792Z,23.83
2019-05-19T12:00:25.441Z,26.09
2019-05-19T12:02:56.196Z,27.43
2019-05-19T12:05:27.039Z,28.22
2019-05-19T12:07:58.077Z,28.22
2019-05-19T12:10:28.903Z,28.19
2019-05-19T12:13:00.474Z,28.12
2019-05-19T12:15:31.472Z,28.16
2019-05-19T12:18:03.662Z,28.70
2019-05-19T12:20:34.520Z,28.96
2019-05-19T12:23:05.299Z,29.23
2019-05-19T12:25:36.195Z,27.96
2019-05-19T12:28:08.128Z,27.61
2019-05-19T12:30:39.086Z,25.82
2019-05-19T12:33:09.998Z,24.93
2019-05-19T12:35:40.985Z,23.81
2019-05-19T12:38:11.791Z,23.81
2019-05-19T12:40:42.981Z,23.67
2019-05-19T12:43:13.927Z,23.19
2019-05-19T12:45:44.712Z,23.14
2019-05-19T12:48:15.831Z,23.21
2019-05-19T12:50:46.691Z,23.70
2019-05-19T12:53:17.643Z,24.79
2019-05-19T12:55:48.888Z,25.44
2019-05-19T12:58:20.019Z,26.27
2019-05-19T13:00:50.931Z,26.16
2019-05-19T13:03:21.954Z,27.05
2019-05-19T13:05:53.321Z,27.42
2019-05-19T13:08:24.337Z,27.42
2019-05-19T13:10:55.387Z,25.38
2019-05-19T13:13:26.554Z,25.38
2019-05-19T13:15:57.610Z,24.79
2019-05-19T13:18:28.359Z,24.49
2019-05-19T13:20:59.712Z,24.47
2019-05-19T13:23:30.531Z,24.14
2019-05-19T13:26:01.559Z,23.95
2019-05-19T13:28:32.472Z,23.83
2019-05-19T13:31:03.622Z,23.90
2019-05-19T13:33:35.211Z,24.01
2019-05-19T13:36:06.514Z,24.34
2019-05-19T13:38:37.097Z,24.34
2019-05-19T13:41:07.968Z,23.90
2019-05-19T13:43:38.590Z,23.73
2019-05-19T13:46:09.558Z,23.23
2019-05-19T13:48:40.390Z,23.24
2019-05-19T13:51:11.118Z,23.26
2019-05-19T13:53:41.719Z,23.19
2019-05-19T13:56:12.582Z,23.47
2019-05-19T13:58:43.455Z,23.36
2019-05-19T14:01:27.587Z,23.49
2019-05-19T14:03:46.894Z,23.59
2019-05-19T14:06:17.698Z,23.54
2019-05-19T14:08:48.746Z,23.62
2019-05-19T14:11:19.541Z,23.56
2019-05-19T14:13:50.364Z,23.59
2019-05-19T14:16:22.155Z,23.68
2019-05-19T14:18:52.869Z,23.70
2019-05-19T14:21:23.955Z,23.68
2019-05-19T14:23:54.760Z,23.83
2019-05-19T14:26:25.796Z,23.77
2019-05-19T14:28:56.715Z,23.69
2019-05-19T14:31:27.554Z,23.77
2019-05-19T14:33:58.584Z,23.86
2019-05-19T14:36:29.546Z,24.04
2019-05-19T14:39:05.107Z,24.11
2019-05-19T14:41:35.841Z,23.94
2019-05-19T14:44:07.874Z,23.83
2019-05-19T14:46:38.652Z,23.85
2019-05-19T14:49:09.551Z,23.76
2019-05-19T14:51:41.216Z,23.76
2019-05-19T14:54:12.671Z,23.71
2019-05-19T14:56:44.320Z,23.46
2019-05-19T14:59:15.299Z,23.43
2019-05-19T15:01:46.004Z,23.38
2019-05-19T15:04:17.771Z,23.21
2019-05-19T15:06:48.798Z,23.19
2019-05-19T15:09:19.585Z,23.19
2019-05-19T15:11:50.454Z,23.16
2019-05-19T15:14:21.227Z,23.09
2019-05-19T15:16:51.988Z,23.01
2019-05-19T15:19:22.930Z,22.93
2019-05-19T15:21:53.935Z,23.04
2019-05-19T15:24:24.946Z,23.13
2019-05-19T15:26:55.684Z,23.30
2019-05-19T15:29:26.871Z,23.46
2019-05-19T15:31:57.878Z,23.52
2019-05-19T15:34:28.549Z,23.48
2019-05-19T15:36:59.151Z,23.48
2019-05-19T15:39:29.928Z,23.47
2019-05-19T15:42:00.676Z,23.46
2019-05-19T15:44:31.669Z,23.42
2019-05-19T15:47:02.509Z,23.35
2019-05-19T15:49:33.638Z,23.33
2019-05-19T15:52:05.733Z,23.34
2019-05-19T15:54:37.252Z,23.31
2019-05-19T15:57:08.043Z,23.23
2019-05-19T15:59:38.959Z,23.12
2019-05-19T16:02:09.649Z,23.07
2019-05-19T16:04:40.474Z,22.98
2019-05-19T16:07:11.440Z,22.91
2019-05-19T16:09:42.687Z,22.92
2019-05-19T16:12:13.334Z,22.90
2019-05-19T16:14:43.917Z,22.87
2019-05-19T16:17:14.509Z,22.94
2019-05-19T16:19:45.171Z,22.93
2019-05-19T16:22:16.915Z,22.93
2019-05-19T16:24:47.683Z,22.91
2019-05-19T16:27:18.659Z,22.94
2019-05-19T16:29:49.428Z,22.99
2019-05-19T16:32:20.087Z,22.93
2019-05-19T16:34:50.849Z,22.88
2019-05-19T16:37:21.931Z,22.85
2019-05-19T16:39:53.676Z,22.80
2019-05-19T16:42:26.357Z,22.76
2019-05-19T16:44:57.317Z,22.80
2019-05-19T16:47:28.201Z,22.75
2019-05-19T16:49:59.152Z,22.78
2019-05-19T16:52:30.249Z,22.73
2019-05-19T16:55:19.071Z,22.74
2019-05-19T16:57:50.044Z,22.72
2019-05-19T17:00:21.367Z,22.68
2019-05-19T17:02:52.491Z,22.71
2019-05-19T17:05:23.392Z,22.69
2019-05-19T17:07:54.192Z,22.66
2019-05-19T17:10:25.196Z,22.65
2019-05-19T17:12:56.394Z,22.61
2019-05-19T17:15:27.395Z,22.56
2019-05-19T17:17:58.435Z,22.55
2019-05-19T17:20:31.048Z,22.52
2019-05-19T17:23:02.103Z,22.52
2019-05-19T17:25:33.088Z,22.51
2019-05-19T17:28:04.248Z,22.46
2019-05-19T17:30:35.379Z,22.45
2019-05-19T17:33:06.336Z,22.46
2019-05-19T17:35:37.745Z,22.44
2019-05-19T17:38:08.614Z,22.43
2019-05-19T17:40:39.648Z,22.44
2019-05-19T17:43:10.730Z,22.39
2019-05-19T17:45:41.758Z,22.31
2019-05-19T17:48:25.689Z,22.23
2019-05-19T17:50:46.085Z,22.25
2019-05-19T17:53:17.062Z,22.15
2019-05-19T17:55:48.814Z,22.12
2019-05-19T17:58:20.191Z,22.11
2019-05-19T18:00:51.342Z,22.07
2019-05-19T18:03:23.179Z,21.99
2019-05-19T18:05:54.537Z,22.06
2019-05-19T18:08:25.715Z,22.03
2019-05-19T18:10:56.571Z,21.98
2019-05-19T18:13:27.657Z,21.93
2019-05-19T18:15:58.599Z,21.90
2019-05-19T18:18:29.624Z,21.86
2019-05-19T18:21:01.014Z,21.79
2019-05-19T18:23:32.154Z,21.76
2019-05-19T18:26:03.079Z,21.75
2019-05-19T18:28:34.453Z,21.71
2019-05-19T18:31:05.483Z,21.61
2019-05-19T18:33:37.699Z,21.60
2019-05-19T18:36:09.135Z,21.58
2019-05-19T18:38:40.318Z,21.54
2019-05-19T18:41:11.459Z,21.55
2019-05-19T18:43:42.865Z,21.52
2019-05-19T18:46:14.170Z,21.43
2019-05-19T18:48:45.399Z,21.43
2019-05-19T18:51:16.482Z,21.39
2019-05-19T18:53:47.644Z,21.30
2019-05-19T18:56:18.855Z,21.29
2019-05-19T18:58:50.197Z,21.24
2019-05-19T19:01:21.589Z,21.21
2019-05-19T19:03:52.727Z,21.08
2019-05-19T19:06:26.239Z,21.01
2019-05-19T19:08:57.317Z,21.03
2019-05-19T19:11:28.218Z,20.93
2019-05-19T19:13:59.478Z,20.98
2019-05-19T19:16:30.406Z,20.98
2019-05-19T19:19:03.438Z,20.90
2019-05-19T19:21:34.109Z,20.90
2019-05-19T19:24:05.158Z,20.86
2019-05-19T19:26:35.872Z,20.82
2019-05-19T19:29:06.860Z,20.78
2019-05-19T19:31:48.182Z,20.69
2019-05-19T19:34:10.193Z,20.62
2019-05-19T19:36:41.402Z,20.56
2019-05-19T19:39:13.055Z,20.49
2019-05-19T19:41:44.463Z,20.44
2019-05-19T19:44:15.357Z,20.39
2019-05-19T19:46:46.277Z,20.36
2019-05-19T19:49:17.501Z,20.43
2019-05-19T19:51:48.549Z,20.40
2019-05-19T19:54:19.599Z,20.37
2019-05-19T19:56:50.563Z,20.38
2019-05-19T19:59:21.501Z,20.40
2019-05-19T20:01:52.717Z,20.27
2019-05-19T20:04:23.894Z,20.20
2019-05-19T20:06:55.039Z,20.21
2019-05-19T20:09:26.131Z,20.26
2019-05-19T20:11:57.193Z,20.23
2019-05-19T20:14:28.047Z,20.20
2019-05-19T20:16:58.876Z,20.18
2019-05-19T20:19:30.066Z,20.15
2019-05-19T20:22:03.067Z,20.17
2019-05-19T20:24:41.633Z,20.11
2019-05-19T20:27:12.529Z,20.13
2019-05-19T20:29:43.319Z,20.05
2019-05-19T20:32:14.221Z,20.11
2019-05-19T20:34:45.009Z,20.06
2019-05-19T20:37:16.127Z,20.05
2019-05-19T20:39:47.292Z,20.05
2019-05-19T20:42:18.004Z,19.94
2019-05-19T20:44:48.878Z,19.90
2019-05-19T20:47:20.249Z,19.96
2019-05-19T20:49:51.190Z,19.85
2019-05-19T20:52:21.961Z,19.85
2019-05-19T20:54:52.968Z,19.89
2019-05-19T20:57:23.927Z,19.84
2019-05-19T20:59:54.726Z,19.86
2019-05-19T21:02:25.539Z,19.76
2019-05-19T21:04:56.493Z,19.71
2019-05-19T21:07:27.230Z,19.64
2019-05-19T21:09:58.173Z,19.63
2019-05-19T21:12:29.110Z,19.63
2019-05-19T21:14:59.879Z,19.59
2019-05-19T21:17:30.808Z,19.44
2019-05-19T21:20:02.700Z,19.45
2019-05-19T21:22:33.779Z,19.48
2019-05-19T21:25:04.997Z,19.48
2019-05-19T21:27:36.071Z,19.41
2019-05-19T21:30:07.698Z,19.37
2019-05-19T21:32:38.759Z,19.28
2019-05-19T21:35:09.932Z,19.34
2019-05-19T21:37:41.103Z,19.31
2019-05-19T21:40:11.949Z,19.27
2019-05-19T21:42:44.150Z,19.25
2019-05-19T21:45:15.577Z,19.25
2019-05-19T21:47:46.598Z,19.08
2019-05-19T21:50:17.530Z,19.18
2019-05-19T21:52:49.446Z,19.19
2019-05-19T21:55:20.367Z,19.21
2019-05-19T21:57:51.237Z,19.19
2019-05-19T22:00:25.122Z,19.06
2019-05-19T22:02:57.322Z,19.09
2019-05-19T22:05:28.400Z,19.13
2019-05-19T22:08:06.848Z,19.14
2019-05-19T22:10:37.917Z,18.98
2019-05-19T22:13:09.060Z,18.92
2019-05-19T22:15:40.098Z,18.89
2019-05-19T22:18:10.858Z,18.91
2019-05-19T22:20:41.740Z,18.95
2019-05-19T22:23:12.704Z,18.93
2019-05-19T22:25:43.953Z,18.73
2019-05-19T22:28:14.756Z,18.68
2019-05-19T22:30:45.705Z,18.64
2019-05-19T22:33:16.875Z,18.72
2019-05-19T22:35:47.922Z,18.76
2019-05-19T22:38:19.507Z,18.76
2019-05-19T22:40:50.473Z,18.70
2019-05-19T22:43:21.454Z,18.56
2019-05-19T22:45:52.776Z,18.41
2019-05-19T22:48:23.701Z,18.35
2019-05-19T22:50:54.685Z,18.44
2019-05-19T22:53:25.853Z,18.33
2019-05-19T22:55:56.781Z,18.28
2019-05-19T22:58:27.883Z,18.35
2019-05-19T23:00:58.952Z,18.31
2019-05-19T23:03:30.166Z,18.32
2019-05-19T23:06:00.907Z,18.11
2019-05-19T23:08:32.092Z,18.08
2019-05-19T23:11:03.347Z,18.05
2019-05-19T23:13:34.319Z,18.01
2019-05-19T23:16:05.523Z,18.08
2019-05-19T23:18:36.191Z,18.04
2019-05-19T23:21:06.933Z,18.07
2019-05-19T23:23:38.147Z,18.07
2019-05-19T23:26:09.026Z,18.04
2019-05-19T23:28:39.981Z,17.94
2019-05-19T23:31:10.960Z,17.94
2019-05-19T23:33:41.854Z,17.92
2019-05-19T23:36:12.701Z,17.92
2019-05-19T23:38:43.527Z,17.86
2019-05-19T23:41:14.462Z,17.79
2019-05-19T23:43:45.785Z,17.73
2019-05-19T23:46:17.083Z,17.75
2019-05-19T23:48:48.934Z,17.63
2019-05-19T23:51:20.047Z,17.39
2019-05-19T23:53:51.048Z,17.57
2019-05-19T23:56:22.046Z,17.63
2019-05-19T23:58:52.889Z,17.51
